Quick Links (Output Below):   Max & Min Temps   /   Climate Reports   /   Zone Forecasts
River Forecasts   /   Forestry Forecasts   /   Aviation Forecasts   /   Radars   /   Features

Terminal Aerodrome Forecast (Hot Springs)

Pick a Site:
Arkadelphia | El Dorado | Fayetteville | Fort Smith | Harrison | Highfill | Hot Springs | Jonesboro
Little Rock | Monticello | Mountain Home | Pine Bluff | Texarkana
 Forecast 

KHOT 231128Z 2312/2412 00000KT P6SM SKC
     FM231600 24006KT P6SM FEW040
     FM240100 00000KT P6SM SKC=


 Latest METARs (Observations) 
How to Decode METARs
13Z KHOT 231253Z AUTO 24004KT 10SM CLR 25/23 A3004 RMK AO2 SLP164
         T02500228
         
12Z KHOT 231153Z AUTO 00000KT 7SM CLR 24/22 A3003 RMK AO2 SLP160
         T02390222 10272 20233 51008
         
11Z KHOT 231053Z AUTO 00000KT 8SM CLR 23/22 A3002 RMK AO2 SLP159
         T02330222
         
10Z KHOT 230953Z AUTO 00000KT 9SM CLR 24/23 A3001 RMK AO2 SLP153
         T02440228
         
09Z KHOT 230853Z AUTO 00000KT 10SM CLR 25/23 A3000 RMK AO2 SLP152
         T02500228 58002
         
08Z KHOT 230753Z AUTO 00000KT 10SM CLR 26/23 A3001 RMK AO2 SLP154
         T02560228
         
07Z KHOT 230653Z AUTO 27003KT 10SM CLR 26/23 A3001 RMK AO2 SLP155
         T02560228
         
06Z KHOT 230553Z AUTO 00000KT 10SM CLR 27/23 A3001 RMK AO2 SLP153
         60000 T02670233 10317 20267 403330250 55000
         
05Z KHOT 230453Z AUTO 00000KT 10SM CLR 27/23 A3001 RMK AO2 SLP153
         T02720233
         
04Z KHOT 230353Z AUTO 00000KT 10SM CLR 27/24 A3001 RMK AO2 RAB29E38
         SLP153 P0000 T02720239
         
***** Today's Observations (Above) *****


Back to Main Page
http://www.srh.noaa.gov/lzk/qfcst.php

USA.gov is the U.S. government's official web portal to all federal, state and local government web resources and services.